sensor_id;sensor_type;location;lat;lon;timestamp;P1;durP1;ratioP1;P2;durP2;ratioP2
45013;SDS011;30749;53.052;8.900;2022-07-10T11:26:54;6.65;;;1.52;;
45013;SDS011;30749;53.052;8.900;2022-07-10T11:29:27;4.03;;;1.48;;
45013;SDS011;30749;53.052;8.900;2022-07-10T11:31:55;6.53;;;2.08;;
45013;SDS011;30749;53.052;8.900;2022-07-10T11:34:21;6.93;;;1.60;;
45013;SDS011;30749;53.052;8.900;2022-07-10T11:36:47;3.92;;;1.35;;
45013;SDS011;30749;53.052;8.900;2022-07-10T11:56:31;4.55;;;1.45;;
45013;SDS011;30749;53.052;8.900;2022-07-10T11:59:02;4.28;;;1.10;;
45013;SDS011;30749;53.052;8.900;2022-07-10T12:01:30;4.78;;;1.50;;
45013;SDS011;30749;53.052;8.900;2022-07-10T12:04:04;7.07;;;1.40;;
45013;SDS011;30749;53.052;8.900;2022-07-10T12:06:33;3.55;;;1.45;;
45013;SDS011;30749;53.052;8.900;2022-07-10T12:09:01;6.22;;;1.73;;
45013;SDS011;30749;53.052;8.900;2022-07-10T12:11:28;5.30;;;2.00;;
45013;SDS011;30749;53.052;8.900;2022-07-10T12:13:54;3.63;;;1.38;;
45013;SDS011;30749;53.052;8.900;2022-07-10T12:16:39;4.53;;;1.48;;
45013;SDS011;30749;53.052;8.900;2022-07-10T12:19:06;3.78;;;1.40;;
45013;SDS011;30749;53.052;8.900;2022-07-10T12:48:41;3.72;;;1.10;;
45013;SDS011;30749;53.052;8.900;2022-07-10T12:51:24;4.05;;;1.05;;
45013;SDS011;30749;53.052;8.900;2022-07-10T12:53:54;2.65;;;0.93;;
45013;SDS011;30749;53.052;8.900;2022-07-10T12:56:30;3.50;;;0.82;;
45013;SDS011;30749;53.052;8.900;2022-07-10T12:59:01;2.92;;;0.80;;
45013;SDS011;30749;53.052;8.900;2022-07-10T13:01:44;3.70;;;0.65;;
45013;SDS011;30749;53.052;8.900;2022-07-10T13:04:10;4.18;;;1.10;;
45013;SDS011;30749;53.052;8.900;2022-07-10T13:06:36;3.17;;;0.98;;
45013;SDS011;30749;53.052;8.900;2022-07-10T13:09:17;2.60;;;0.88;;
45013;SDS011;30749;53.052;8.900;2022-07-10T13:11:52;5.63;;;1.20;;
45013;SDS011;30749;53.052;8.900;2022-07-10T13:14:19;2.72;;;1.00;;
45013;SDS011;30749;53.052;8.900;2022-07-10T13:16:45;3.17;;;0.77;;
45013;SDS011;30749;53.052;8.900;2022-07-10T13:19:11;2.90;;;0.90;;
45013;SDS011;30749;53.052;8.900;2022-07-10T13:26:34;2.60;;;0.70;;
45013;SDS011;30749;53.052;8.900;2022-07-10T13:29:00;1.52;;;0.60;;
45013;SDS011;30749;53.052;8.900;2022-07-10T13:31:25;1.60;;;0.60;;
45013;SDS011;30749;53.052;8.900;2022-07-10T13:33:51;1.95;;;0.88;;
45013;SDS011;30749;53.052;8.900;2022-07-10T13:36:17;3.47;;;1.00;;
45013;SDS011;30749;53.052;8.900;2022-07-10T13:38:43;1.23;;;0.82;;
45013;SDS011;30749;53.052;8.900;2022-07-10T13:41:09;0.90;;;0.55;;
45013;SDS011;30749;53.052;8.900;2022-07-10T13:43:34;2.20;;;0.70;;
45013;SDS011;30749;53.052;8.900;2022-07-10T13:46:00;2.30;;;0.98;;
45013;SDS011;30749;53.052;8.900;2022-07-10T13:48:27;1.50;;;0.88;;
45013;SDS011;30749;53.052;8.900;2022-07-10T14:05:29;1.63;;;0.50;;
45013;SDS011;30749;53.052;8.900;2022-07-10T14:07:54;1.58;;;0.70;;
45013;SDS011;30749;53.052;8.900;2022-07-10T14:10:22;2.53;;;0.85;;
45013;SDS011;30749;53.052;8.900;2022-07-10T14:12:48;3.05;;;0.90;;
45013;SDS011;30749;53.052;8.900;2022-07-10T14:15:14;3.20;;;0.98;;
45013;SDS011;30749;53.052;8.900;2022-07-10T14:17:46;3.40;;;1.50;;
45013;SDS011;30749;53.052;8.900;2022-07-10T14:20:15;3.15;;;1.35;;
45013;SDS011;30749;53.052;8.900;2022-07-10T14:22:40;2.63;;;0.83;;
45013;SDS011;30749;53.052;8.900;2022-07-10T14:25:06;4.17;;;2.00;;
45013;SDS011;30749;53.052;8.900;2022-07-10T14:27:32;5.17;;;1.60;;
45013;SDS011;30749;53.052;8.900;2022-07-10T14:29:58;4.40;;;2.22;;
45013;SDS011;30749;53.052;8.900;2022-07-10T14:34:50;5.30;;;1.70;;
45013;SDS011;30749;53.052;8.900;2022-07-10T14:37:16;5.20;;;1.48;;
45013;SDS011;30749;53.052;8.900;2022-07-10T14:39:41;5.70;;;1.83;;
45013;SDS011;30749;53.052;8.900;2022-07-10T14:42:07;3.55;;;1.30;;
45013;SDS011;30749;53.052;8.900;2022-07-10T14:44:33;2.40;;;1.02;;
45013;SDS011;30749;53.052;8.900;2022-07-10T14:46:59;3.38;;;1.02;;
45013;SDS011;30749;53.052;8.900;2022-07-10T14:49:33;4.15;;;0.98;;
45013;SDS011;30749;53.052;8.900;2022-07-10T14:51:59;3.25;;;1.20;;
45013;SDS011;30749;53.052;8.900;2022-07-10T14:54:25;2.92;;;0.88;;
45013;SDS011;30749;53.052;8.900;2022-07-10T14:56:50;3.40;;;0.60;;
45013;SDS011;30749;53.052;8.900;2022-07-10T14:59:16;2.88;;;1.30;;
45013;SDS011;30749;53.052;8.900;2022-07-10T15:01:42;3.10;;;0.75;;
45013;SDS011;30749;53.052;8.900;2022-07-10T15:04:08;4.13;;;1.73;;
45013;SDS011;30749;53.052;8.900;2022-07-10T15:06:33;18.38;;;10.50;;
45013;SDS011;30749;53.052;8.900;2022-07-10T15:08:59;5.28;;;2.40;;
45013;SDS011;30749;53.052;8.900;2022-07-10T15:11:28;15.40;;;11.93;;
45013;SDS011;30749;53.052;8.900;2022-07-10T19:16:37;1.20;;;0.30;;
45013;SDS011;30749;53.052;8.900;2022-07-10T19:19:03;2.05;;;0.32;;
45013;SDS011;30749;53.052;8.900;2022-07-10T19:21:32;1.53;;;0.50;;
45013;SDS011;30749;53.052;8.900;2022-07-10T19:23:58;2.35;;;0.47;;
45013;SDS011;30749;53.052;8.900;2022-07-10T19:26:24;1.75;;;0.55;;
45013;SDS011;30749;53.052;8.900;2022-07-10T19:28:50;2.17;;;0.40;;
45013;SDS011;30749;53.052;8.900;2022-07-10T19:31:16;2.33;;;0.40;;
45013;SDS011;30749;53.052;8.900;2022-07-10T19:33:41;1.50;;;0.40;;
45013;SDS011;30749;53.052;8.900;2022-07-10T19:36:07;1.63;;;0.40;;
45013;SDS011;30749;53.052;8.900;2022-07-10T19:38:33;1.88;;;0.43;;
45013;SDS011;30749;53.052;8.900;2022-07-10T19:40:59;0.90;;;0.40;;
45013;SDS011;30749;53.052;8.900;2022-07-10T19:43:25;1.30;;;0.50;;
45013;SDS011;30749;53.052;8.900;2022-07-10T19:45:51;1.10;;;0.45;;
45013;SDS011;30749;53.052;8.900;2022-07-10T19:48:16;1.63;;;0.60;;
45013;SDS011;30749;53.052;8.900;2022-07-10T19:50:43;218.90;;;200.95;;
45013;SDS011;30749;53.052;8.900;2022-07-10T19:53:08;763.87;;;706.73;;
45013;SDS011;30749;53.052;8.900;2022-07-10T19:55:34;987.72;;;911.08;;
